Canaan, Missouri
Current Conditions -  °F | °C
As of 5:53 PM on Wednesday 28 Jan 2015 (Local Time) from KVIH Reporting Station
Clear Clear  
Wind Chill: 50°   Ceiling: Unl
Heat Index: 50°   Visibility: 10mi
Dew Point: 33°   Wind: 14mph
Humidity: 52%   Direction: 160°SSE
Pressure: 29.89"   Gusts: NA
Location:  38.3239°N, 91.6268°W
Report Text: KVIH 282353Z AUTO 16012KT 10SM CLR 10/01 A2989 RMK AO2 SLP125 T01000006 10133 20089 56014
Loading
Personal Weather Stations






























Interactive Weather Map New forecast layout! Learn more

10-Day Weather Forecast

Advertisements
Track Severe Weather on mobile